LDSPLDDU

Guest
Details From LDSP - SPLIT
To LDDU - DUBROVNIK
Flight Number -
Tags generated
Created
Modified
Stats Distance 104 nm / 193 km
Max Altitude 8,100 ft / 2,469 m
Waypoints 3
Social Downloads 0
Likes 0
Share VATSIM

Download

Looking for another format? Having issues loading an existing format? Contact us
Advertisement - Login to hide

Notes

Basic altitude profile: - Ascent Rate: 2000ft/min - Ascent Speed: 250kts - Cruise Altitude: 13000ft - Cruise Speed: 370kts - Descent Rate: 1500ft/min - Descent Speed: 200kts Options: - Use NATs: yes - Use PACOTS: yes - Use low airways: yes - Use high airways: yes

Route

LDSP NERRA LDDU

ID Type Via Altitude Latitude Longitude Leg Dist Tot Dist Heading (true) Name
O LDSP APT - 0 ft / 0 m 43.53903˚ 16.29811˚ - 0 nm - SPLIT
NERRA FIX - 8,100 ft / 2,469 m 42.90528˚ 17.54333˚ 66 nm 66 nm 125° / 125° -
O LDDU APT - 0 ft / 0 m 42.56284˚ 18.26450˚ 37 nm 104 nm 123° / 123° DUBROVNIK

Altitude Profile

Advertisement - Login to hide

LDSP

Details ICAO LDSP (SPU)
Name SPLIT
Region Croatia
Timezone Europe/Zagreb (UTC+1.0)
Stats Elevation 79 ft / 24 m (AMSL)
Location 43.539026° 16.298112°
Runways 1
Magnetic Variation 3.836° E

METAR

LDSP 121230Z 12011KT 9999 FEW011 SCT056 16/12 Q1014 NOSIG

Decode

TAF

TAF LDSP 121125Z 1212/1312 12009KT 9999 BKN050 TX17/1212Z TN10/1308Z BECMG 1222/1300 23009KT TEMPO 1300/1312 RA PROB30 TEMPO 1300/1306 31015G25KT TSRA FEW025CB BKN030 BECMG 1304/1306 31010KT BECMG 1310/1312 23008KT

Decode

Departure Runways

ID Width Length Bearing (true) Bearing (mag) Surface Threshold Offset Overrun Length
05 148 ft / 45 m 8,357 ft / 2,547 m 52.48° 48.64° Asphalt 0 ft / 0 m 76 ft / 23 m
23 148 ft / 45 m 8,357 ft / 2,547 m 232.50° 228.66° Asphalt 525 ft / 160 m 820 ft / 250 m

LDDU

Details ICAO LDDU (DBV)
Name DUBROVNIK
Region Croatia
Timezone Europe/Zagreb (UTC+1.0)
Stats Elevation 527 ft / 161 m (AMSL)
Location 42.562840° 18.264499°
Runways 1
Magnetic Variation 4.099° E

METAR

LDDU 121230Z 13015KT 9999 FEW008 SCT013 BKN020 15/14 Q1018 TEMPO 13015G25KT

Decode

TAF

TAF TAF LDDU 121125Z 1212/1312 15015KT 9999 SCT010 BKN017 TX15/1212Z TN13/1306Z TEMPO 1212/1312 BKN010 PROB30 TEMPO 1212/1303 12015G25KT BKN008 PROB40 TEMPO 1306/1312 4000 RA BECMG 1310/1312 19008KT

Decode

Destination Runways

ID Width Length Bearing (true) Bearing (mag) Surface Threshold Offset Overrun Length
12 148 ft / 45 m 10,803 ft / 3,293 m 118.30° 114.20° Asphalt 488 ft / 149 m 100 ft / 30 m
30 148 ft / 45 m 10,803 ft / 3,293 m 298.33° 294.23° Asphalt 0 ft / 0 m 100 ft / 30 m

Approach Navaids

Runway Type Ident Frequency Range Bearing (true) Bearing (mag) Slope Elevation
12 Localiser IDU 110.10 MHz 25 nm / 46 km 118.21° 114.11° - 469 ft / 143 m (AMSL)
12 Glidescope IDU 110.10 MHz 25 nm / 46 km 118.21° 114.11° 3.00° 502 ft / 153 m (AMSL)

Popular Alternatives